createdAt,value
2023-03-21T00:01:53.942Z,99969.06
2023-03-21T00:04:28.426Z,99966.34
2023-03-21T00:06:56.849Z,99965.41
2023-03-21T00:09:23.682Z,99952.53
2023-03-21T00:11:50.610Z,99966.25
2023-03-21T00:14:19.093Z,99949.53
2023-03-21T00:16:51.291Z,99959.41
2023-03-21T00:19:22.106Z,99948.22
2023-03-21T00:22:06.549Z,99949.91
2023-03-21T00:24:35.652Z,99949.16
2023-03-21T00:29:49.805Z,99943.72
2023-03-21T00:32:18.118Z,99931.88
2023-03-21T00:34:58.829Z,99932.06
2023-03-21T00:37:29.667Z,99942.44
2023-03-21T00:39:56.512Z,99932.13
2023-03-21T00:42:24.116Z,99918.59
2023-03-21T00:44:50.996Z,99913.19
2023-03-21T00:47:17.829Z,99920.00
2023-03-21T00:49:44.689Z,99916.19
2023-03-21T00:52:18.640Z,99896.97
2023-03-21T00:54:49.238Z,99883.06
2023-03-21T00:57:16.784Z,99878.75
2023-03-21T00:59:43.621Z,99874.28
2023-03-21T01:02:15.097Z,99871.31
2023-03-21T01:04:42.222Z,99864.41
2023-03-21T01:07:09.006Z,99852.06
2023-03-21T01:09:35.843Z,99850.03
2023-03-21T01:12:04.001Z,99836.50
2023-03-21T01:14:30.888Z,99838.53
2023-03-21T01:16:57.668Z,99837.53
2023-03-21T01:19:48.286Z,99833.13
2023-03-21T01:22:15.751Z,99824.09
2023-03-21T01:24:52.446Z,99825.88
2023-03-21T01:27:22.321Z,99835.94
2023-03-21T01:29:49.232Z,99830.16
2023-03-21T01:32:16.877Z,99839.00
2023-03-21T01:34:43.838Z,99827.47
2023-03-21T01:37:10.651Z,99828.75
2023-03-21T01:39:37.544Z,99829.50
2023-03-21T01:42:04.597Z,99823.72
2023-03-21T01:44:31.818Z,99827.81
2023-03-21T01:47:10.420Z,99823.44
2023-03-21T01:49:48.595Z,99821.19
2023-03-21T01:52:35.758Z,99810.34
2023-03-21T01:55:07.330Z,99818.41
2023-03-21T01:57:51.871Z,99803.47
2023-03-21T02:00:25.223Z,99815.97
2023-03-21T02:02:58.175Z,99821.09
2023-03-21T02:05:40.771Z,99833.50
2023-03-21T02:08:08.024Z,99817.47
2023-03-21T02:10:36.605Z,99825.94
2023-03-21T02:13:08.398Z,99817.34
2023-03-21T02:15:42.380Z,99814.00
2023-03-21T02:18:37.648Z,99815.34
2023-03-21T02:21:10.850Z,99808.69
2023-03-21T02:24:26.582Z,99810.28
2023-03-21T02:27:14.605Z,99807.22
2023-03-21T02:30:37.511Z,99781.19
2023-03-21T02:34:03.386Z,99777.25
2023-03-21T02:37:11.548Z,99772.78
2023-03-21T02:39:53.750Z,99758.22
2023-03-21T02:43:00.024Z,99756.53
2023-03-21T02:45:57.241Z,99770.63
2023-03-21T02:48:41.304Z,99759.88
2023-03-21T02:51:16.566Z,99759.44
2023-03-21T02:53:55.009Z,99762.59
2023-03-21T02:56:33.788Z,99748.34
2023-03-21T02:59:01.788Z,99742.00
2023-03-21T03:01:29.177Z,99740.22
2023-03-21T03:03:56.405Z,99745.81
2023-03-21T03:06:29.549Z,99740.31
2023-03-21T03:09:11.722Z,99737.88
2023-03-21T03:11:43.682Z,99736.00
2023-03-21T03:15:02.272Z,99734.25
2023-03-21T03:17:43.561Z,99730.78
2023-03-21T03:20:33.402Z,99735.81
2023-03-21T03:23:30.469Z,99720.25
2023-03-21T03:26:12.541Z,99732.47
2023-03-21T03:28:46.266Z,99718.94
2023-03-21T03:31:22.108Z,99724.53
2023-03-21T03:33:54.797Z,99718.38
2023-03-21T03:36:32.789Z,99705.50
2023-03-21T03:39:04.782Z,99711.47
2023-03-21T03:42:03.040Z,99707.09
2023-03-21T03:44:26.193Z,99701.03
2023-03-21T03:47:29.896Z,99713.72
2023-03-21T03:50:13.287Z,99707.09
2023-03-21T03:53:18.129Z,99698.78
2023-03-21T03:55:46.654Z,99694.22
2023-03-21T03:58:22.763Z,99694.50
2023-03-21T04:00:52.966Z,99690.41
2023-03-21T04:03:19.923Z,99678.38
2023-03-21T04:05:46.790Z,99668.78
2023-03-21T04:08:15.515Z,99669.03
2023-03-21T04:10:42.995Z,99671.94
2023-03-21T04:13:11.108Z,99660.91
2023-03-21T04:15:38.206Z,99660.44
2023-03-21T04:18:05.862Z,99665.22
2023-03-21T04:20:37.315Z,99647.97
2023-03-21T04:23:05.795Z,99647.13
2023-03-21T04:25:44.675Z,99638.75
2023-03-21T04:28:14.783Z,99635.66
2023-03-21T04:30:51.885Z,99623.34
2023-03-21T04:33:26.330Z,99625.41
2023-03-21T04:35:56.418Z,99632.09
2023-03-21T04:38:25.293Z,99628.75
2023-03-21T04:40:52.724Z,99620.34
2023-03-21T04:43:19.597Z,99625.22
2023-03-21T04:45:46.426Z,99623.66
2023-03-21T04:48:14.625Z,99615.03
2023-03-21T04:50:41.437Z,99615.50
2023-03-21T04:53:08.247Z,99616.72
2023-03-21T04:55:37.204Z,99616.31
2023-03-21T04:58:04.990Z,99620.00
2023-03-21T05:00:32.971Z,99617.47
2023-03-21T05:03:00.305Z,99612.47
2023-03-21T05:05:27.230Z,99609.63
2023-03-21T05:07:54.049Z,99610.28
2023-03-21T05:10:20.894Z,99601.44
2023-03-21T05:12:47.634Z,99599.63
2023-03-21T05:15:14.475Z,99596.28
2023-03-21T05:17:42.867Z,99593.22
2023-03-21T05:20:11.839Z,99589.88
2023-03-21T05:22:40.663Z,99590.31
2023-03-21T05:25:09.969Z,99594.88
2023-03-21T05:27:37.071Z,99588.19
2023-03-21T05:30:09.029Z,99590.69
2023-03-21T05:32:36.024Z,99582.56
2023-03-21T05:35:03.159Z,99583.03
2023-03-21T05:37:29.964Z,99579.09
2023-03-21T05:39:56.854Z,99583.03
2023-03-21T05:42:23.964Z,99578.41
2023-03-21T05:44:51.156Z,99581.75
2023-03-21T05:47:18.641Z,99575.47
2023-03-21T05:49:47.279Z,99576.16
2023-03-21T05:52:14.592Z,99572.34
2023-03-21T05:54:42.019Z,99581.94
2023-03-21T05:57:09.202Z,99572.78
2023-03-21T05:59:36.044Z,99589.22
2023-03-21T06:02:03.841Z,99586.50
2023-03-21T06:04:31.114Z,99581.09
2023-03-21T06:06:57.929Z,99578.00
2023-03-21T06:09:26.192Z,99574.28
2023-03-21T06:11:55.998Z,99572.34
2023-03-21T06:14:24.701Z,99573.81
2023-03-21T06:16:54.034Z,99578.78
2023-03-21T06:19:22.027Z,99574.38
2023-03-21T06:21:50.111Z,99568.41
2023-03-21T06:24:18.020Z,99569.88
2023-03-21T06:26:46.485Z,99576.34
2023-03-21T06:29:13.357Z,99563.81
2023-03-21T06:31:40.566Z,99566.72
2023-03-21T06:34:07.497Z,99568.97
2023-03-21T06:36:34.666Z,99574.66
2023-03-21T06:39:01.708Z,99565.88
2023-03-21T06:41:28.450Z,99565.25
2023-03-21T06:43:55.618Z,99573.63
2023-03-21T06:46:22.491Z,99570.75
2023-03-21T06:48:49.460Z,99569.06
2023-03-21T06:51:16.417Z,99562.16
2023-03-21T06:53:44.667Z,99566.81
2023-03-21T06:56:13.591Z,99558.03
2023-03-21T06:58:41.651Z,99556.81
2023-03-21T07:01:09.013Z,99558.31
2023-03-21T07:03:35.887Z,99560.25
2023-03-21T07:06:14.175Z,99558.44
2023-03-21T07:08:41.817Z,99555.22
2023-03-21T07:11:09.835Z,99548.59
2023-03-21T07:13:37.084Z,99555.34
2023-03-21T07:16:04.927Z,99547.94
2023-03-21T07:18:31.862Z,99550.31
2023-03-21T07:20:59.181Z,99547.41
2023-03-21T07:23:27.385Z,99557.44
2023-03-21T07:25:54.995Z,99546.25
2023-03-21T07:28:23.198Z,99542.88
2023-03-21T07:30:59.510Z,99557.09
2023-03-21T07:33:27.055Z,99552.41
2023-03-21T07:35:58.057Z,99548.69
2023-03-21T07:38:26.473Z,99551.97
2023-03-21T07:40:54.015Z,99547.78
2023-03-21T07:43:20.905Z,99549.25
2023-03-21T07:45:47.835Z,99555.91
2023-03-21T07:48:15.286Z,99546.88
2023-03-21T07:50:42.060Z,99548.16
2023-03-21T07:53:09.185Z,99551.94
2023-03-21T07:55:36.500Z,99549.84
2023-03-21T07:58:04.714Z,99552.31
2023-03-21T08:00:32.027Z,99546.88
2023-03-21T08:02:59.823Z,99556.06
2023-03-21T08:05:35.272Z,99541.91
2023-03-21T08:08:03.027Z,99541.53
2023-03-21T08:10:30.922Z,99543.25
2023-03-21T08:12:58.223Z,99538.75
2023-03-21T08:15:25.052Z,99547.34
2023-03-21T08:17:52.107Z,99541.31
2023-03-21T08:20:22.309Z,99544.72
2023-03-21T08:22:49.964Z,99540.63
2023-03-21T08:25:19.735Z,99537.28
2023-03-21T08:27:48.453Z,99535.66
2023-03-21T08:30:22.978Z,99536.06
2023-03-21T08:32:50.199Z,99534.44
2023-03-21T08:35:19.231Z,99525.66
2023-03-21T08:37:46.433Z,99531.94
2023-03-21T08:40:18.041Z,99523.81
2023-03-21T08:42:46.756Z,99533.22
2023-03-21T08:45:16.272Z,99527.38
2023-03-21T08:47:43.588Z,99522.16
2023-03-21T08:50:15.718Z,99520.31
2023-03-21T08:52:43.238Z,99521.13
2023-03-21T08:55:11.150Z,99521.38
2023-03-21T08:57:38.248Z,99527.25
2023-03-21T09:00:13.273Z,99532.69
2023-03-21T09:02:51.592Z,99528.31
2023-03-21T09:05:19.137Z,99540.91
2023-03-21T09:07:46.311Z,99538.19
2023-03-21T09:10:21.141Z,99524.63
2023-03-21T09:12:51.800Z,99537.56
2023-03-21T09:15:22.307Z,99540.31
2023-03-21T09:17:53.146Z,99556.16
2023-03-21T09:20:26.501Z,99543.03
2023-03-21T09:22:54.431Z,99536.75
2023-03-21T09:25:21.661Z,99537.44
2023-03-21T09:27:48.931Z,99545.16
2023-03-21T09:30:26.213Z,99534.50
2023-03-21T09:32:55.862Z,99533.44
2023-03-21T09:35:24.950Z,99524.00
2023-03-21T09:37:51.980Z,99510.78
2023-03-21T09:41:13.456Z,99506.34
2023-03-21T09:44:27.922Z,99510.66
2023-03-21T09:47:06.431Z,99507.75
2023-03-21T09:49:42.295Z,99505.88
2023-03-21T09:52:48.153Z,99511.53
2023-03-21T09:55:25.908Z,99509.94
2023-03-21T09:58:05.164Z,99518.13
2023-03-21T10:00:42.387Z,99516.94
2023-03-21T10:03:27.658Z,99517.13
2023-03-21T10:06:00.813Z,99528.81
2023-03-21T10:08:37.646Z,99518.09
2023-03-21T10:11:14.254Z,99512.00
2023-03-21T10:13:48.729Z,99510.88
2023-03-21T10:16:38.127Z,99504.56
2023-03-21T10:19:14.411Z,99513.03
2023-03-21T10:22:03.596Z,99501.25
2023-03-21T10:24:34.615Z,99485.19
2023-03-21T10:27:03.608Z,99483.44
2023-03-21T10:29:43.463Z,99484.63
2023-03-21T10:32:14.378Z,99491.00
2023-03-21T10:34:47.145Z,99497.53
2023-03-21T10:37:14.782Z,99497.31
2023-03-21T10:39:45.850Z,99495.59
2023-03-21T10:42:24.886Z,99494.50
2023-03-21T10:44:55.283Z,99499.44
2023-03-21T10:47:30.593Z,99499.88
2023-03-21T10:50:09.574Z,99495.63
2023-03-21T10:52:49.077Z,99499.81
2023-03-21T10:55:23.383Z,99491.81
2023-03-21T10:57:59.049Z,99483.22
2023-03-21T11:00:34.392Z,99490.94
2023-03-21T11:03:03.678Z,99492.63
2023-03-21T11:05:41.640Z,99496.84
2023-03-21T11:08:19.561Z,99494.94
2023-03-21T11:11:03.198Z,99504.72
2023-03-21T11:13:43.376Z,99494.44
2023-03-21T11:16:11.185Z,99504.91
2023-03-21T11:18:50.464Z,99503.50
2023-03-21T11:21:17.957Z,99505.44
2023-03-21T11:23:52.959Z,99497.09
2023-03-21T11:26:27.511Z,99501.09
2023-03-21T11:28:55.424Z,99499.66
2023-03-21T11:31:25.119Z,99501.59
2023-03-21T11:33:57.248Z,99489.38
2023-03-21T11:36:24.270Z,99486.00
2023-03-21T11:38:53.506Z,99491.03
2023-03-21T11:41:30.281Z,99485.28
2023-03-21T11:43:59.404Z,99485.66
2023-03-21T11:46:32.286Z,99481.63
2023-03-21T11:49:01.525Z,99485.13
2023-03-21T11:52:02.857Z,99479.81
2023-03-21T11:55:18.170Z,99468.47
2023-03-21T11:58:13.485Z,99464.72
2023-03-21T12:01:02.966Z,99463.97
2023-03-21T12:04:33.182Z,99458.75
2023-03-21T12:07:14.542Z,99443.41
2023-03-21T12:09:54.441Z,99446.13
2023-03-21T12:12:38.797Z,99452.22
2023-03-21T12:15:33.118Z,99442.63
2023-03-21T12:18:29.899Z,99441.41
2023-03-21T12:21:05.422Z,99440.28
2023-03-21T12:24:02.494Z,99446.25
2023-03-21T12:26:35.693Z,99443.19
2023-03-21T12:29:40.331Z,99446.50
2023-03-21T12:32:29.361Z,99432.84
2023-03-21T12:35:10.844Z,99435.34
2023-03-21T12:38:20.544Z,99433.69
2023-03-21T12:41:04.326Z,99429.97
2023-03-21T12:43:32.402Z,99438.53
2023-03-21T12:46:04.607Z,99439.91
2023-03-21T12:48:47.938Z,99447.00
2023-03-21T12:51:24.529Z,99451.16
2023-03-21T12:54:05.031Z,99452.00
2023-03-21T12:56:45.593Z,99455.31
2023-03-21T12:59:31.146Z,99456.41
2023-03-21T13:02:09.090Z,99443.75
2023-03-21T13:04:48.093Z,99454.13
2023-03-21T13:07:20.232Z,99441.09
2023-03-21T13:09:48.362Z,99449.50
2023-03-21T13:12:46.225Z,99452.47
2023-03-21T13:15:34.277Z,99440.94
2023-03-21T13:18:19.070Z,99458.81
2023-03-21T13:21:13.700Z,99450.09
2023-03-21T13:23:40.788Z,99460.25
2023-03-21T13:26:12.600Z,99460.63
2023-03-21T13:28:41.704Z,99461.78
2023-03-21T13:31:24.168Z,99443.69
2023-03-21T13:33:54.593Z,99446.69
2023-03-21T13:36:29.044Z,99454.47
2023-03-21T13:39:04.463Z,99453.66
2023-03-21T13:41:43.850Z,99459.22
2023-03-21T13:44:36.521Z,99470.72
2023-03-21T13:47:07.384Z,99462.38
2023-03-21T13:49:38.910Z,99454.88
2023-03-21T13:52:28.289Z,99460.72
2023-03-21T13:54:57.641Z,99460.84
2023-03-21T13:57:27.430Z,99469.13
2023-03-21T14:00:25.770Z,99461.94
2023-03-21T14:03:13.785Z,99464.97
2023-03-21T14:05:41.706Z,99449.56
2023-03-21T14:08:24.829Z,99448.44
2023-03-21T14:11:01.674Z,99456.53
2023-03-21T14:13:33.080Z,99464.72
2023-03-21T14:16:12.865Z,99451.69
2023-03-21T14:18:55.012Z,99450.19
2023-03-21T14:21:26.681Z,99450.50
2023-03-21T14:24:20.518Z,99444.81
2023-03-21T14:26:54.196Z,99445.03
2023-03-21T14:29:31.842Z,99441.25
2023-03-21T14:32:00.408Z,99446.63
2023-03-21T14:34:30.826Z,99446.03
2023-03-21T14:36:59.077Z,99430.03
2023-03-21T14:39:33.184Z,99433.47
2023-03-21T14:42:10.912Z,99443.59
2023-03-21T14:44:58.111Z,99442.00
2023-03-21T14:47:28.872Z,99439.19
2023-03-21T14:49:57.440Z,99432.16
2023-03-21T14:52:34.903Z,99434.34
2023-03-21T14:55:07.520Z,99434.81
2023-03-21T14:57:34.489Z,99432.53
2023-03-21T15:00:13.064Z,99439.53
2023-03-21T15:02:42.332Z,99426.97
2023-03-21T15:05:14.387Z,99427.88
2023-03-21T15:07:41.280Z,99425.41
2023-03-21T15:10:18.221Z,99422.88
2023-03-21T15:13:00.516Z,99421.44
2023-03-21T15:15:29.613Z,99416.59
2023-03-21T15:18:04.462Z,99411.94
2023-03-21T15:20:36.057Z,99413.88
2023-03-21T15:23:10.828Z,99412.16
2023-03-21T15:25:39.541Z,99417.81
2023-03-21T15:28:06.764Z,99415.66
2023-03-21T15:30:34.656Z,99400.31
2023-03-21T15:33:10.771Z,99408.03
2023-03-21T15:35:46.133Z,99397.25
2023-03-21T15:38:31.648Z,99404.94
2023-03-21T15:41:34.137Z,99408.94
2023-03-21T15:44:10.258Z,99412.91
2023-03-21T15:46:50.052Z,99397.25
2023-03-21T15:49:16.828Z,99408.16
2023-03-21T15:51:52.117Z,99411.25
2023-03-21T15:54:37.211Z,99406.31
2023-03-21T15:57:23.147Z,99403.38
2023-03-21T15:59:51.187Z,99406.31
2023-03-21T16:02:23.228Z,99412.19
2023-03-21T16:05:32.522Z,99404.28
2023-03-21T16:08:19.507Z,99402.81
2023-03-21T16:10:46.544Z,99408.09
2023-03-21T16:13:16.725Z,99407.28
2023-03-21T16:15:43.996Z,99404.66
2023-03-21T16:18:17.211Z,99405.69
2023-03-21T16:20:46.938Z,99407.13
2023-03-21T16:23:15.864Z,99405.69
2023-03-21T16:25:47.121Z,99413.84
2023-03-21T16:28:17.633Z,99404.28
2023-03-21T16:30:45.749Z,99405.16
2023-03-21T16:33:13.709Z,99393.03
2023-03-21T16:35:41.623Z,99395.75
2023-03-21T16:38:13.003Z,99395.38
2023-03-21T16:40:42.465Z,99390.41
2023-03-21T16:43:11.230Z,99395.56
2023-03-21T16:45:38.259Z,99391.63
2023-03-21T16:48:05.868Z,99390.59
2023-03-21T16:50:41.828Z,99387.34
2023-03-21T16:53:09.778Z,99394.63
2023-03-21T16:55:37.631Z,99390.91
2023-03-21T16:58:05.663Z,99384.81
2023-03-21T17:00:32.905Z,99377.97
2023-03-21T17:03:03.271Z,99378.78
2023-03-21T17:05:33.806Z,99380.25
2023-03-21T17:08:04.698Z,99378.38
2023-03-21T17:10:32.977Z,99378.78
2023-03-21T17:12:59.964Z,99368.31
2023-03-21T17:15:27.097Z,99370.41
2023-03-21T17:17:55.864Z,99363.34
2023-03-21T17:20:38.024Z,99365.44
2023-03-21T17:23:05.150Z,99365.44
2023-03-21T17:25:31.952Z,99362.94
2023-03-21T17:27:59.139Z,99359.81
2023-03-21T17:30:35.633Z,99361.72
2023-03-21T17:33:02.902Z,99357.31
2023-03-21T17:35:29.792Z,99361.91
2023-03-21T17:37:58.777Z,99358.00
2023-03-21T17:40:29.794Z,99350.88
2023-03-21T17:42:58.151Z,99350.28
2023-03-21T17:45:26.019Z,99351.72
2023-03-21T17:47:55.100Z,99350.03
2023-03-21T17:50:26.528Z,99348.19
2023-03-21T17:52:53.657Z,99347.13
2023-03-21T17:55:21.436Z,99345.25
2023-03-21T17:57:49.464Z,99340.44
2023-03-21T18:00:22.972Z,99335.03
2023-03-21T18:02:51.874Z,99331.72
2023-03-21T18:05:21.698Z,99333.16
2023-03-21T18:10:37.247Z,99332.34
2023-03-21T18:13:04.430Z,99325.25
2023-03-21T18:15:31.478Z,99321.72
2023-03-21T18:17:59.212Z,99313.78
2023-03-21T18:20:49.794Z,99317.16
2023-03-21T18:23:15.528Z,99318.00
2023-03-21T18:25:42.521Z,99316.13
2023-03-21T18:28:11.875Z,99311.75
2023-03-21T18:33:27.622Z,99309.44
2023-03-21T18:35:59.075Z,99301.72
2023-03-21T18:38:29.680Z,99307.16
2023-03-21T18:40:56.847Z,99299.22
2023-03-21T18:46:12.098Z,99314.66
2023-03-21T18:48:39.461Z,99300.91
2023-03-21T18:51:06.611Z,99304.66
2023-03-21T18:53:33.654Z,99300.69
2023-03-21T18:56:00.877Z,99302.16
2023-03-21T18:58:29.375Z,99299.66
2023-03-21T19:00:59.726Z,99285.91
2023-03-21T19:03:35.730Z,99285.91
2023-03-21T19:06:05.942Z,99283.59
2023-03-21T19:08:34.940Z,99275.47
2023-03-21T19:11:05.999Z,99268.16
2023-03-21T19:13:34.133Z,99272.97
2023-03-21T19:16:02.590Z,99263.16
2023-03-21T19:21:19.267Z,99267.13
2023-03-21T19:26:33.596Z,99268.16
2023-03-21T19:29:00.441Z,99267.53
2023-03-21T19:31:27.653Z,99261.28
2023-03-21T19:33:54.556Z,99262.50
2023-03-21T19:36:23.297Z,99256.91
2023-03-21T19:38:51.378Z,99251.06
2023-03-21T19:41:20.332Z,99245.44
2023-03-21T19:43:54.523Z,99239.38
2023-03-21T19:46:25.372Z,99240.38
2023-03-21T19:48:56.564Z,99234.16
2023-03-21T19:51:29.677Z,99228.75
2023-03-21T19:53:58.857Z,99244.38
2023-03-21T19:56:27.668Z,99222.47
2023-03-21T19:58:57.765Z,99224.13
2023-03-21T20:01:25.519Z,99224.09
2023-03-21T20:03:53.028Z,99212.44
2023-03-21T20:06:22.353Z,99209.53
2023-03-21T20:09:47.122Z,99207.00
2023-03-21T20:11:37.678Z,99201.78
2023-03-21T20:14:05.498Z,99196.81
2023-03-21T20:16:35.849Z,99192.03
2023-03-21T20:19:06.217Z,99179.91
2023-03-21T20:21:44.465Z,99174.28
2023-03-21T20:24:16.606Z,99176.56
2023-03-21T20:26:45.880Z,99167.41
2023-03-21T20:32:01.232Z,99162.22
2023-03-21T20:34:29.397Z,99162.22
2023-03-21T20:36:58.573Z,99151.16
2023-03-21T20:39:27.951Z,99138.69
2023-03-21T20:41:55.534Z,99142.22
2023-03-21T20:47:09.461Z,99118.88
2023-03-21T20:49:37.018Z,99110.16
2023-03-21T20:54:54.257Z,99091.16
2023-03-21T20:57:21.479Z,99092.63
2023-03-21T20:59:48.530Z,99081.22
2023-03-21T21:02:16.310Z,99068.28
2023-03-21T21:05:03.530Z,99063.06
2023-03-21T21:07:30.099Z,99052.44
2023-03-21T21:09:57.860Z,99060.78
2023-03-21T21:12:28.724Z,99056.22
2023-03-21T21:14:56.742Z,99054.53
2023-03-21T21:17:40.655Z,99047.25
2023-03-21T21:20:18.297Z,99037.47
2023-03-21T21:23:00.107Z,99042.69
2023-03-21T21:25:29.190Z,99029.56
2023-03-21T21:27:56.375Z,99028.72
2023-03-21T21:30:23.393Z,99020.00
2023-03-21T21:32:50.501Z,99009.16
2023-03-21T21:35:19.681Z,99002.91
2023-03-21T21:37:47.131Z,99003.53
2023-03-21T21:40:16.899Z,98989.38
2023-03-21T21:42:44.817Z,98977.91
2023-03-21T21:45:13.523Z,98992.47
2023-03-21T21:47:40.991Z,98984.19
2023-03-21T21:50:08.861Z,98978.94
2023-03-21T21:52:37.535Z,98970.22
2023-03-21T21:55:06.673Z,98972.91
2023-03-21T21:57:34.769Z,98974.38
2023-03-21T22:00:06.848Z,98973.34
2023-03-21T22:02:34.404Z,98956.66
2023-03-21T22:05:01.233Z,98966.66
2023-03-21T22:07:28.552Z,98946.69
2023-03-21T22:09:55.405Z,98930.84
2023-03-21T22:12:22.242Z,98935.44
2023-03-21T22:14:49.267Z,98922.09
2023-03-21T22:17:16.464Z,98926.25
2023-03-21T22:19:46.257Z,98926.69
2023-03-21T22:22:22.892Z,98924.19
2023-03-21T22:24:50.608Z,98928.13
2023-03-21T22:27:17.985Z,98917.94
2023-03-21T22:29:45.009Z,98914.84
2023-03-21T22:32:11.862Z,98923.75
2023-03-21T22:34:38.718Z,98916.28
2023-03-21T22:37:05.693Z,98922.53
2023-03-21T22:39:32.477Z,98922.09
2023-03-21T22:42:01.510Z,98922.53
2023-03-21T22:44:34.653Z,98921.50
2023-03-21T22:47:06.970Z,98919.22
2023-03-21T22:49:34.069Z,98908.78
2023-03-21T22:52:03.411Z,98903.78
2023-03-21T22:54:31.170Z,98912.53
2023-03-21T22:56:59.022Z,98894.63
2023-03-21T22:59:26.496Z,98897.13
2023-03-21T23:01:53.472Z,98888.16
2023-03-21T23:04:20.628Z,98889.81
2023-03-21T23:06:47.536Z,98881.72
2023-03-21T23:09:15.180Z,98868.78
2023-03-21T23:11:43.134Z,98857.56
2023-03-21T23:14:10.598Z,98848.59
2023-03-21T23:16:38.547Z,98837.56
2023-03-21T23:19:06.537Z,98841.31
2023-03-21T23:21:35.323Z,98829.25
2023-03-21T23:24:02.732Z,98831.34
2023-03-21T23:26:29.512Z,98816.78
2023-03-21T23:28:56.441Z,98819.69
2023-03-21T23:31:27.022Z,98817.41
2023-03-21T23:33:57.792Z,98810.50
2023-03-21T23:36:24.791Z,98815.94
2023-03-21T23:38:51.696Z,98811.13
2023-03-21T23:41:23.292Z,98793.66
2023-03-21T23:43:51.210Z,98794.28
2023-03-21T23:46:19.298Z,98779.72
2023-03-21T23:48:47.457Z,98774.72
2023-03-21T23:51:17.410Z,98787.22
2023-03-21T23:53:46.881Z,98784.09
2023-03-21T23:56:21.213Z,98778.91
2023-03-21T23:58:52.193Z,98773.47
